sensor_id;sensor_type;location;lat;lon;timestamp;temperature;humidity
48535;DHT22;34323;52.022;5.686;2023-03-26T00:01:18;14.10;99.90
48535;DHT22;34323;52.022;5.686;2023-03-26T00:03:45;14.10;99.90
48535;DHT22;34323;52.022;5.686;2023-03-26T00:06:19;14.00;99.90
48535;DHT22;34323;52.022;5.686;2023-03-26T00:08:47;14.00;99.90
48535;DHT22;34323;52.022;5.686;2023-03-26T00:11:15;14.00;99.90
48535;DHT22;34323;52.022;5.686;2023-03-26T00:13:41;14.20;99.90
48535;DHT22;34323;52.022;5.686;2023-03-26T00:16:09;14.00;99.90
48535;DHT22;34323;52.022;5.686;2023-03-26T00:18:35;14.10;99.90
48535;DHT22;34323;52.022;5.686;2023-03-26T00:21:03;14.20;99.90
48535;DHT22;34323;52.022;5.686;2023-03-26T00:23:31;14.50;99.90
48535;DHT22;34323;52.022;5.686;2023-03-26T00:25:57;14.60;99.90
48535;DHT22;34323;52.022;5.686;2023-03-26T00:28:23;14.10;99.90
48535;DHT22;34323;52.022;5.686;2023-03-26T00:31:01;14.10;99.90
48535;DHT22;34323;52.022;5.686;2023-03-26T00:33:27;14.30;99.90
48535;DHT22;34323;52.022;5.686;2023-03-26T00:35:54;14.30;99.90
48535;DHT22;34323;52.022;5.686;2023-03-26T00:38:21;14.50;99.90
48535;DHT22;34323;52.022;5.686;2023-03-26T00:40:49;14.30;99.90
48535;DHT22;34323;52.022;5.686;2023-03-26T00:43:16;14.20;99.90
48535;DHT22;34323;52.022;5.686;2023-03-26T00:48:12;14.20;99.90
48535;DHT22;34323;52.022;5.686;2023-03-26T00:50:37;14.40;99.90
48535;DHT22;34323;52.022;5.686;2023-03-26T00:53:03;14.10;99.90
48535;DHT22;34323;52.022;5.686;2023-03-26T00:55:29;13.80;99.90
48535;DHT22;34323;52.022;5.686;2023-03-26T00:57:55;13.80;99.90
48535;DHT22;34323;52.022;5.686;2023-03-26T01:00:28;14.10;99.90
48535;DHT22;34323;52.022;5.686;2023-03-26T01:02:57;13.90;99.90
48535;DHT22;34323;52.022;5.686;2023-03-26T01:08:09;14.00;99.90
48535;DHT22;34323;52.022;5.686;2023-03-26T01:10:40;13.70;99.90
48535;DHT22;34323;52.022;5.686;2023-03-26T01:13:05;13.70;99.90
48535;DHT22;34323;52.022;5.686;2023-03-26T01:15:31;13.90;99.90
48535;DHT22;34323;52.022;5.686;2023-03-26T01:17:57;14.10;99.90
48535;DHT22;34323;52.022;5.686;2023-03-26T01:20:24;13.80;99.90
48535;DHT22;34323;52.022;5.686;2023-03-26T01:22:59;13.60;99.90
48535;DHT22;34323;52.022;5.686;2023-03-26T01:25:32;13.30;99.90
48535;DHT22;34323;52.022;5.686;2023-03-26T01:27:59;13.50;99.90
48535;DHT22;34323;52.022;5.686;2023-03-26T01:30:39;13.50;99.90
48535;DHT22;34323;52.022;5.686;2023-03-26T01:36:07;13.30;99.90
48535;DHT22;34323;52.022;5.686;2023-03-26T01:39:04;13.40;99.90
48535;DHT22;34323;52.022;5.686;2023-03-26T01:46:53;13.90;99.90
48535;DHT22;34323;52.022;5.686;2023-03-26T01:49:20;13.90;99.90
48535;DHT22;34323;52.022;5.686;2023-03-26T01:51:45;13.70;99.90
48535;DHT22;34323;52.022;5.686;2023-03-26T01:54:22;13.60;99.90
48535;DHT22;34323;52.022;5.686;2023-03-26T02:00:00;14.20;99.90
48535;DHT22;34323;52.022;5.686;2023-03-26T02:02:57;14.20;99.90
48535;DHT22;34323;52.022;5.686;2023-03-26T02:05:40;14.10;99.90
48535;DHT22;34323;52.022;5.686;2023-03-26T02:10:57;14.00;99.90
48535;DHT22;34323;52.022;5.686;2023-03-26T02:13:24;13.80;99.90
48535;DHT22;34323;52.022;5.686;2023-03-26T02:16:12;13.60;99.90
48535;DHT22;34323;52.022;5.686;2023-03-26T02:18:42;13.30;99.90
48535;DHT22;34323;52.022;5.686;2023-03-26T02:21:17;13.30;99.90
48535;DHT22;34323;52.022;5.686;2023-03-26T02:23:50;12.70;99.90
48535;DHT22;34323;52.022;5.686;2023-03-26T02:26:22;12.70;99.90
48535;DHT22;34323;52.022;5.686;2023-03-26T02:28:48;12.80;99.90
48535;DHT22;34323;52.022;5.686;2023-03-26T02:31:13;12.60;99.90
48535;DHT22;34323;52.022;5.686;2023-03-26T02:33:40;12.90;99.90
48535;DHT22;34323;52.022;5.686;2023-03-26T02:36:06;13.10;99.90
48535;DHT22;34323;52.022;5.686;2023-03-26T02:38:33;13.40;99.90
48535;DHT22;34323;52.022;5.686;2023-03-26T02:41:00;13.30;99.90
48535;DHT22;34323;52.022;5.686;2023-03-26T02:43:26;13.10;99.90
48535;DHT22;34323;52.022;5.686;2023-03-26T02:45:51;13.10;99.90
48535;DHT22;34323;52.022;5.686;2023-03-26T02:48:17;13.00;99.90
48535;DHT22;34323;52.022;5.686;2023-03-26T02:50:44;13.30;99.90
48535;DHT22;34323;52.022;5.686;2023-03-26T02:53:10;13.30;99.90
48535;DHT22;34323;52.022;5.686;2023-03-26T02:55:36;13.40;99.90
48535;DHT22;34323;52.022;5.686;2023-03-26T02:58:02;13.30;99.90
48535;DHT22;34323;52.022;5.686;2023-03-26T03:00:28;13.10;99.90
48535;DHT22;34323;52.022;5.686;2023-03-26T03:02:54;13.20;99.90
48535;DHT22;34323;52.022;5.686;2023-03-26T03:05:22;13.10;99.90
48535;DHT22;34323;52.022;5.686;2023-03-26T03:07:51;13.00;99.90
48535;DHT22;34323;52.022;5.686;2023-03-26T03:10:26;12.90;99.90
48535;DHT22;34323;52.022;5.686;2023-03-26T03:12:52;13.00;99.90
48535;DHT22;34323;52.022;5.686;2023-03-26T03:15:19;13.10;99.90
48535;DHT22;34323;52.022;5.686;2023-03-26T03:17:45;13.20;99.90
48535;DHT22;34323;52.022;5.686;2023-03-26T03:20:11;13.30;99.90
48535;DHT22;34323;52.022;5.686;2023-03-26T03:22:37;13.10;99.90
48535;DHT22;34323;52.022;5.686;2023-03-26T03:25:04;12.80;99.90
48535;DHT22;34323;52.022;5.686;2023-03-26T03:27:29;13.00;99.90
48535;DHT22;34323;52.022;5.686;2023-03-26T03:29:55;13.10;99.90
48535;DHT22;34323;52.022;5.686;2023-03-26T03:32:23;13.50;99.90
48535;DHT22;34323;52.022;5.686;2023-03-26T03:34:49;13.80;99.90
48535;DHT22;34323;52.022;5.686;2023-03-26T03:37:16;13.80;99.90
48535;DHT22;34323;52.022;5.686;2023-03-26T03:39:42;14.00;99.90
48535;DHT22;34323;52.022;5.686;2023-03-26T03:42:08;14.10;99.90
48535;DHT22;34323;52.022;5.686;2023-03-26T03:44:33;13.80;99.90
48535;DHT22;34323;52.022;5.686;2023-03-26T03:47:00;13.70;99.90
48535;DHT22;34323;52.022;5.686;2023-03-26T03:49:25;13.70;99.90
48535;DHT22;34323;52.022;5.686;2023-03-26T03:51:51;13.60;99.90
48535;DHT22;34323;52.022;5.686;2023-03-26T03:54:16;13.50;99.90
48535;DHT22;34323;52.022;5.686;2023-03-26T03:56:42;13.50;99.90
48535;DHT22;34323;52.022;5.686;2023-03-26T03:59:10;13.80;99.90
48535;DHT22;34323;52.022;5.686;2023-03-26T04:01:36;14.00;99.90
48535;DHT22;34323;52.022;5.686;2023-03-26T04:04:02;14.30;99.90
48535;DHT22;34323;52.022;5.686;2023-03-26T04:06:27;14.50;99.90
48535;DHT22;34323;52.022;5.686;2023-03-26T04:08:57;14.70;99.90
48535;DHT22;34323;52.022;5.686;2023-03-26T04:11:22;14.80;99.90
48535;DHT22;34323;52.022;5.686;2023-03-26T04:13:48;14.70;99.90
48535;DHT22;34323;52.022;5.686;2023-03-26T04:16:13;14.90;99.90
48535;DHT22;34323;52.022;5.686;2023-03-26T04:18:39;15.10;99.90
48535;DHT22;34323;52.022;5.686;2023-03-26T04:21:06;15.10;99.90
48535;DHT22;34323;52.022;5.686;2023-03-26T04:23:32;15.20;99.90
48535;DHT22;34323;52.022;5.686;2023-03-26T04:26:01;15.50;99.90
48535;DHT22;34323;52.022;5.686;2023-03-26T04:28:35;15.50;99.90
48535;DHT22;34323;52.022;5.686;2023-03-26T04:31:09;15.00;99.90
48535;DHT22;34323;52.022;5.686;2023-03-26T04:33:36;14.90;99.90
48535;DHT22;34323;52.022;5.686;2023-03-26T04:36:04;14.90;99.90
48535;DHT22;34323;52.022;5.686;2023-03-26T04:38:35;14.80;99.90
48535;DHT22;34323;52.022;5.686;2023-03-26T04:41:02;15.00;99.90
48535;DHT22;34323;52.022;5.686;2023-03-26T04:43:28;15.20;99.90
48535;DHT22;34323;52.022;5.686;2023-03-26T04:45:54;15.40;99.90
48535;DHT22;34323;52.022;5.686;2023-03-26T04:48:21;15.30;99.90
48535;DHT22;34323;52.022;5.686;2023-03-26T04:50:47;15.40;99.90
48535;DHT22;34323;52.022;5.686;2023-03-26T04:53:16;15.60;99.90
48535;DHT22;34323;52.022;5.686;2023-03-26T04:55:59;15.70;99.90
48535;DHT22;34323;52.022;5.686;2023-03-26T04:58:26;15.70;99.90
48535;DHT22;34323;52.022;5.686;2023-03-26T05:00:59;15.80;99.90
48535;DHT22;34323;52.022;5.686;2023-03-26T05:03:26;15.80;99.90
48535;DHT22;34323;52.022;5.686;2023-03-26T05:06:00;15.70;99.90
48535;DHT22;34323;52.022;5.686;2023-03-26T05:08:26;15.80;99.90
48535;DHT22;34323;52.022;5.686;2023-03-26T05:10:54;15.60;99.90
48535;DHT22;34323;52.022;5.686;2023-03-26T05:13:21;15.60;99.90
48535;DHT22;34323;52.022;5.686;2023-03-26T05:15:46;15.70;99.90
48535;DHT22;34323;52.022;5.686;2023-03-26T05:18:12;15.70;99.90
48535;DHT22;34323;52.022;5.686;2023-03-26T05:20:38;15.60;99.90
48535;DHT22;34323;52.022;5.686;2023-03-26T05:23:04;15.20;99.90
48535;DHT22;34323;52.022;5.686;2023-03-26T05:25:30;15.00;99.90
48535;DHT22;34323;52.022;5.686;2023-03-26T05:27:56;14.90;99.90
48535;DHT22;34323;52.022;5.686;2023-03-26T05:30:21;14.90;99.90
48535;DHT22;34323;52.022;5.686;2023-03-26T05:32:47;15.00;99.90
48535;DHT22;34323;52.022;5.686;2023-03-26T05:35:14;15.10;99.90
48535;DHT22;34323;52.022;5.686;2023-03-26T05:37:41;15.40;99.90
48535;DHT22;34323;52.022;5.686;2023-03-26T05:40:09;15.40;99.90
48535;DHT22;34323;52.022;5.686;2023-03-26T05:42:37;15.60;99.90
48535;DHT22;34323;52.022;5.686;2023-03-26T05:45:05;15.60;99.90
48535;DHT22;34323;52.022;5.686;2023-03-26T05:47:31;15.70;99.90
48535;DHT22;34323;52.022;5.686;2023-03-26T05:49:57;15.50;99.90
48535;DHT22;34323;52.022;5.686;2023-03-26T05:52:22;15.30;99.90
48535;DHT22;34323;52.022;5.686;2023-03-26T05:54:48;15.30;99.90
48535;DHT22;34323;52.022;5.686;2023-03-26T05:57:14;15.30;99.90
48535;DHT22;34323;52.022;5.686;2023-03-26T05:59:39;15.30;99.90
48535;DHT22;34323;52.022;5.686;2023-03-26T06:02:06;15.10;99.90
48535;DHT22;34323;52.022;5.686;2023-03-26T06:04:32;14.50;99.90
48535;DHT22;34323;52.022;5.686;2023-03-26T06:06:57;14.40;99.90
48535;DHT22;34323;52.022;5.686;2023-03-26T06:09:23;14.50;99.90
48535;DHT22;34323;52.022;5.686;2023-03-26T06:11:49;14.60;99.90
48535;DHT22;34323;52.022;5.686;2023-03-26T06:14:14;14.60;99.90
48535;DHT22;34323;52.022;5.686;2023-03-26T06:16:40;15.00;99.90
48535;DHT22;34323;52.022;5.686;2023-03-26T06:19:05;15.10;99.90
48535;DHT22;34323;52.022;5.686;2023-03-26T06:21:31;15.30;99.90
48535;DHT22;34323;52.022;5.686;2023-03-26T06:23:57;15.40;99.90
48535;DHT22;34323;52.022;5.686;2023-03-26T06:26:22;15.50;99.90
48535;DHT22;34323;52.022;5.686;2023-03-26T06:28:48;15.50;99.90
48535;DHT22;34323;52.022;5.686;2023-03-26T06:31:13;15.60;99.90
48535;DHT22;34323;52.022;5.686;2023-03-26T06:33:41;15.70;99.90
48535;DHT22;34323;52.022;5.686;2023-03-26T06:36:07;15.70;99.90
48535;DHT22;34323;52.022;5.686;2023-03-26T06:38:33;15.70;99.90
48535;DHT22;34323;52.022;5.686;2023-03-26T06:41:02;15.70;99.90
48535;DHT22;34323;52.022;5.686;2023-03-26T06:43:28;15.60;99.90
48535;DHT22;34323;52.022;5.686;2023-03-26T06:46:00;15.60;99.90
48535;DHT22;34323;52.022;5.686;2023-03-26T06:48:26;15.60;99.90
48535;DHT22;34323;52.022;5.686;2023-03-26T06:50:52;15.60;99.90
48535;DHT22;34323;52.022;5.686;2023-03-26T06:53:18;15.50;99.90
48535;DHT22;34323;52.022;5.686;2023-03-26T06:55:43;15.50;99.90
48535;DHT22;34323;52.022;5.686;2023-03-26T06:58:12;15.50;99.90
48535;DHT22;34323;52.022;5.686;2023-03-26T07:00:39;15.50;99.90
48535;DHT22;34323;52.022;5.686;2023-03-26T07:03:04;15.60;99.90
48535;DHT22;34323;52.022;5.686;2023-03-26T07:05:30;15.80;99.90
48535;DHT22;34323;52.022;5.686;2023-03-26T07:07:56;15.80;99.90
48535;DHT22;34323;52.022;5.686;2023-03-26T07:10:22;15.80;99.90
48535;DHT22;34323;52.022;5.686;2023-03-26T07:12:48;15.80;99.90
48535;DHT22;34323;52.022;5.686;2023-03-26T07:15:13;15.90;99.90
48535;DHT22;34323;52.022;5.686;2023-03-26T07:17:39;15.80;99.90
48535;DHT22;34323;52.022;5.686;2023-03-26T07:20:06;15.70;99.90
48535;DHT22;34323;52.022;5.686;2023-03-26T07:22:33;15.60;99.90
48535;DHT22;34323;52.022;5.686;2023-03-26T07:24:59;15.60;99.90
48535;DHT22;34323;52.022;5.686;2023-03-26T07:33:47;15.30;99.90
48535;DHT22;34323;52.022;5.686;2023-03-26T07:36:41;14.70;99.90
48535;DHT22;34323;52.022;5.686;2023-03-26T07:44:47;14.10;99.90
48535;DHT22;34323;52.022;5.686;2023-03-26T07:47:31;14.10;99.90
48535;DHT22;34323;52.022;5.686;2023-03-26T07:49:57;14.30;99.90
48535;DHT22;34323;52.022;5.686;2023-03-26T07:52:24;14.40;99.90
48535;DHT22;34323;52.022;5.686;2023-03-26T07:54:50;14.50;99.90
48535;DHT22;34323;52.022;5.686;2023-03-26T07:57:32;14.40;99.90
48535;DHT22;34323;52.022;5.686;2023-03-26T08:00:06;14.40;99.90
48535;DHT22;34323;52.022;5.686;2023-03-26T08:02:44;14.30;99.90
48535;DHT22;34323;52.022;5.686;2023-03-26T08:05:29;14.50;99.90
48535;DHT22;34323;52.022;5.686;2023-03-26T08:16:15;15.00;99.90
48535;DHT22;34323;52.022;5.686;2023-03-26T08:21:19;15.20;99.90
48535;DHT22;34323;52.022;5.686;2023-03-26T08:29:23;15.20;99.90
48535;DHT22;34323;52.022;5.686;2023-03-26T08:31:52;15.10;99.90
48535;DHT22;34323;52.022;5.686;2023-03-26T08:34:19;15.10;99.90
48535;DHT22;34323;52.022;5.686;2023-03-26T08:36:44;15.00;99.90
48535;DHT22;34323;52.022;5.686;2023-03-26T08:39:10;14.80;99.90
48535;DHT22;34323;52.022;5.686;2023-03-26T08:42:01;14.70;99.90
48535;DHT22;34323;52.022;5.686;2023-03-26T08:53:07;14.80;99.90
48535;DHT22;34323;52.022;5.686;2023-03-26T08:56:04;14.60;99.90
48535;DHT22;34323;52.022;5.686;2023-03-26T09:02:12;15.20;99.90
48535;DHT22;34323;52.022;5.686;2023-03-26T09:04:41;15.10;99.90
48535;DHT22;34323;52.022;5.686;2023-03-26T09:10:26;15.20;99.90
48535;DHT22;34323;52.022;5.686;2023-03-26T09:13:39;15.30;99.90
48535;DHT22;34323;52.022;5.686;2023-03-26T09:16:33;15.30;99.90
48535;DHT22;34323;52.022;5.686;2023-03-26T09:25:14;14.60;99.90
48535;DHT22;34323;52.022;5.686;2023-03-26T09:28:26;14.80;99.90
48535;DHT22;34323;52.022;5.686;2023-03-26T09:33:55;14.80;99.90
48535;DHT22;34323;52.022;5.686;2023-03-26T09:42:10;14.90;99.90
48535;DHT22;34323;52.022;5.686;2023-03-26T09:47:51;14.20;99.90
48535;DHT22;34323;52.022;5.686;2023-03-26T09:50:49;13.80;99.90
48535;DHT22;34323;52.022;5.686;2023-03-26T09:53:55;14.00;99.90
48535;DHT22;34323;52.022;5.686;2023-03-26T09:59:36;14.60;99.90
48535;DHT22;34323;52.022;5.686;2023-03-26T10:02:15;14.70;99.90
48535;DHT22;34323;52.022;5.686;2023-03-26T10:07:48;14.90;99.90
48535;DHT22;34323;52.022;5.686;2023-03-26T10:16:08;14.90;99.90
48535;DHT22;34323;52.022;5.686;2023-03-26T10:22:52;15.30;99.90
48535;DHT22;34323;52.022;5.686;2023-03-26T10:25:21;15.20;99.90
48535;DHT22;34323;52.022;5.686;2023-03-26T10:41:58;16.30;99.90
48535;DHT22;34323;52.022;5.686;2023-03-26T10:52:45;15.70;99.90
48535;DHT22;34323;52.022;5.686;2023-03-26T10:55:21;15.60;99.90
48535;DHT22;34323;52.022;5.686;2023-03-26T10:58:02;15.40;99.90
48535;DHT22;34323;52.022;5.686;2023-03-26T11:00:28;15.10;99.90
48535;DHT22;34323;52.022;5.686;2023-03-26T11:14:10;15.10;99.90
48535;DHT22;34323;52.022;5.686;2023-03-26T11:16:59;14.70;99.90
48535;DHT22;34323;52.022;5.686;2023-03-26T11:19:51;14.60;99.90
48535;DHT22;34323;52.022;5.686;2023-03-26T11:22:37;14.30;99.90
48535;DHT22;34323;52.022;5.686;2023-03-26T11:25:24;14.30;99.90
48535;DHT22;34323;52.022;5.686;2023-03-26T11:30:36;14.30;99.90
48535;DHT22;34323;52.022;5.686;2023-03-26T11:33:08;14.30;99.90
48535;DHT22;34323;52.022;5.686;2023-03-26T11:35:41;14.40;99.90
48535;DHT22;34323;52.022;5.686;2023-03-26T11:38:31;14.30;99.90
48535;DHT22;34323;52.022;5.686;2023-03-26T11:40:59;14.20;99.90
48535;DHT22;34323;52.022;5.686;2023-03-26T11:43:33;14.20;99.90
48535;DHT22;34323;52.022;5.686;2023-03-26T11:46:06;14.00;99.90
48535;DHT22;34323;52.022;5.686;2023-03-26T11:48:39;14.20;99.90
48535;DHT22;34323;52.022;5.686;2023-03-26T11:51:09;14.20;99.90
48535;DHT22;34323;52.022;5.686;2023-03-26T11:53:37;14.30;99.90
48535;DHT22;34323;52.022;5.686;2023-03-26T11:59:00;14.30;99.90
48535;DHT22;34323;52.022;5.686;2023-03-26T12:01:56;14.40;99.90
48535;DHT22;34323;52.022;5.686;2023-03-26T12:04:36;14.40;99.90
48535;DHT22;34323;52.022;5.686;2023-03-26T12:07:20;14.30;99.90
48535;DHT22;34323;52.022;5.686;2023-03-26T12:10:00;14.20;99.90
48535;DHT22;34323;52.022;5.686;2023-03-26T12:12:32;14.30;99.90
48535;DHT22;34323;52.022;5.686;2023-03-26T12:14:59;14.30;99.90
48535;DHT22;34323;52.022;5.686;2023-03-26T12:17:36;14.30;99.90
48535;DHT22;34323;52.022;5.686;2023-03-26T12:23:00;14.00;99.90
48535;DHT22;34323;52.022;5.686;2023-03-26T12:25:28;14.00;99.90
48535;DHT22;34323;52.022;5.686;2023-03-26T12:28:02;14.20;99.90
48535;DHT22;34323;52.022;5.686;2023-03-26T12:30:30;14.20;99.90
48535;DHT22;34323;52.022;5.686;2023-03-26T12:33:04;14.00;99.90
48535;DHT22;34323;52.022;5.686;2023-03-26T12:35:33;14.10;99.90
48535;DHT22;34323;52.022;5.686;2023-03-26T12:38:22;14.30;99.90
48535;DHT22;34323;52.022;5.686;2023-03-26T12:41:06;14.30;99.90
48535;DHT22;34323;52.022;5.686;2023-03-26T12:43:52;14.50;99.90
48535;DHT22;34323;52.022;5.686;2023-03-26T12:48:51;14.40;99.90
48535;DHT22;34323;52.022;5.686;2023-03-26T12:56:58;14.80;99.90
48535;DHT22;34323;52.022;5.686;2023-03-26T13:05:37;14.60;99.90
48535;DHT22;34323;52.022;5.686;2023-03-26T13:13:35;14.10;99.90
48535;DHT22;34323;52.022;5.686;2023-03-26T13:16:44;14.30;99.90
48535;DHT22;34323;52.022;5.686;2023-03-26T13:19:44;14.30;99.90
48535;DHT22;34323;52.022;5.686;2023-03-26T13:22:18;14.40;99.90
48535;DHT22;34323;52.022;5.686;2023-03-26T13:25:23;14.60;99.90
48535;DHT22;34323;52.022;5.686;2023-03-26T13:27:58;14.80;99.90
48535;DHT22;34323;52.022;5.686;2023-03-26T13:30:53;15.00;99.90
48535;DHT22;34323;52.022;5.686;2023-03-26T13:33:31;15.30;99.90
48535;DHT22;34323;52.022;5.686;2023-03-26T13:38:37;15.50;99.90
48535;DHT22;34323;52.022;5.686;2023-03-26T13:42:06;15.40;99.90
48535;DHT22;34323;52.022;5.686;2023-03-26T13:44:38;15.10;99.90
48535;DHT22;34323;52.022;5.686;2023-03-26T13:47:16;15.00;99.90
48535;DHT22;34323;52.022;5.686;2023-03-26T13:49:47;14.90;99.90
48535;DHT22;34323;52.022;5.686;2023-03-26T13:52:37;14.90;99.90
48535;DHT22;34323;52.022;5.686;2023-03-26T13:55:24;15.30;99.90
48535;DHT22;34323;52.022;5.686;2023-03-26T13:58:15;15.50;99.90
48535;DHT22;34323;52.022;5.686;2023-03-26T14:00:57;15.40;99.90
48535;DHT22;34323;52.022;5.686;2023-03-26T14:06:31;15.10;99.90
48535;DHT22;34323;52.022;5.686;2023-03-26T14:09:04;14.80;99.90
48535;DHT22;34323;52.022;5.686;2023-03-26T14:11:38;15.10;99.90
48535;DHT22;34323;52.022;5.686;2023-03-26T14:14:13;15.20;99.90
48535;DHT22;34323;52.022;5.686;2023-03-26T14:16:50;15.00;99.90
48535;DHT22;34323;52.022;5.686;2023-03-26T14:22:16;14.90;99.90
48535;DHT22;34323;52.022;5.686;2023-03-26T14:30:44;14.70;99.90
48535;DHT22;34323;52.022;5.686;2023-03-26T14:41:51;15.60;99.90
48535;DHT22;34323;52.022;5.686;2023-03-26T14:49:36;15.20;99.90
48535;DHT22;34323;52.022;5.686;2023-03-26T14:52:09;14.90;99.90
48535;DHT22;34323;52.022;5.686;2023-03-26T14:54:41;15.00;99.90
48535;DHT22;34323;52.022;5.686;2023-03-26T14:57:30;15.20;99.90
48535;DHT22;34323;52.022;5.686;2023-03-26T15:00:36;15.00;99.90
48535;DHT22;34323;52.022;5.686;2023-03-26T15:11:30;14.50;99.90
48535;DHT22;34323;52.022;5.686;2023-03-26T15:22:52;14.20;99.90
48535;DHT22;34323;52.022;5.686;2023-03-26T15:40:03;13.60;99.90
48535;DHT22;34323;52.022;5.686;2023-03-26T15:42:43;13.60;99.90
48535;DHT22;34323;52.022;5.686;2023-03-26T15:45:36;13.20;99.90
48535;DHT22;34323;52.022;5.686;2023-03-26T15:50:59;13.40;99.90
48535;DHT22;34323;52.022;5.686;2023-03-26T15:53:34;12.90;99.90
48535;DHT22;34323;52.022;5.686;2023-03-26T15:56:14;12.90;99.90
48535;DHT22;34323;52.022;5.686;2023-03-26T15:58:48;13.00;99.90
48535;DHT22;34323;52.022;5.686;2023-03-26T16:04:26;13.30;99.90
48535;DHT22;34323;52.022;5.686;2023-03-26T16:07:13;12.90;99.90
48535;DHT22;34323;52.022;5.686;2023-03-26T16:09:54;13.00;99.90
48535;DHT22;34323;52.022;5.686;2023-03-26T16:15:30;12.80;99.90
48535;DHT22;34323;52.022;5.686;2023-03-26T16:20:47;12.70;99.90
48535;DHT22;34323;52.022;5.686;2023-03-26T16:23:29;13.00;99.90
48535;DHT22;34323;52.022;5.686;2023-03-26T16:26:11;13.40;99.90
48535;DHT22;34323;52.022;5.686;2023-03-26T16:34:17;13.20;99.90
48535;DHT22;34323;52.022;5.686;2023-03-26T16:36:44;13.00;99.90
48535;DHT22;34323;52.022;5.686;2023-03-26T16:42:03;12.50;99.90
48535;DHT22;34323;52.022;5.686;2023-03-26T16:44:48;12.50;99.90
48535;DHT22;34323;52.022;5.686;2023-03-26T16:47:35;12.70;99.90
48535;DHT22;34323;52.022;5.686;2023-03-26T16:50:42;12.50;99.90
48535;DHT22;34323;52.022;5.686;2023-03-26T16:55:46;12.70;99.90
48535;DHT22;34323;52.022;5.686;2023-03-26T16:58:31;12.50;99.90
48535;DHT22;34323;52.022;5.686;2023-03-26T17:03:59;12.70;99.90
48535;DHT22;34323;52.022;5.686;2023-03-26T17:06:49;12.10;99.90
48535;DHT22;34323;52.022;5.686;2023-03-26T17:20:38;12.50;99.90
48535;DHT22;34323;52.022;5.686;2023-03-26T17:23:16;12.60;99.90
48535;DHT22;34323;52.022;5.686;2023-03-26T17:26:01;12.50;99.90
48535;DHT22;34323;52.022;5.686;2023-03-26T17:31:18;12.30;99.90
48535;DHT22;34323;52.022;5.686;2023-03-26T17:33:48;12.50;99.90
48535;DHT22;34323;52.022;5.686;2023-03-26T17:41:50;12.50;99.90
48535;DHT22;34323;52.022;5.686;2023-03-26T17:44:52;12.20;99.90
48535;DHT22;34323;52.022;5.686;2023-03-26T17:47:30;12.00;99.90
48535;DHT22;34323;52.022;5.686;2023-03-26T17:50:01;11.70;99.90
48535;DHT22;34323;52.022;5.686;2023-03-26T17:53:01;11.90;99.90
48535;DHT22;34323;52.022;5.686;2023-03-26T17:55:36;12.10;99.90
48535;DHT22;34323;52.022;5.686;2023-03-26T17:58:05;11.90;99.90
48535;DHT22;34323;52.022;5.686;2023-03-26T18:00:51;11.40;99.90
48535;DHT22;34323;52.022;5.686;2023-03-26T18:03:31;11.40;99.90
48535;DHT22;34323;52.022;5.686;2023-03-26T18:06:06;11.30;99.90
48535;DHT22;34323;52.022;5.686;2023-03-26T18:08:53;11.20;99.90
48535;DHT22;34323;52.022;5.686;2023-03-26T18:14:51;11.30;99.90
48535;DHT22;34323;52.022;5.686;2023-03-26T18:17:20;11.10;99.90
48535;DHT22;34323;52.022;5.686;2023-03-26T18:19:52;11.20;99.90
48535;DHT22;34323;52.022;5.686;2023-03-26T18:22:22;11.60;99.90
48535;DHT22;34323;52.022;5.686;2023-03-26T18:24:49;11.60;99.90
48535;DHT22;34323;52.022;5.686;2023-03-26T18:27:19;11.30;99.90
48535;DHT22;34323;52.022;5.686;2023-03-26T18:30:01;11.20;99.90
48535;DHT22;34323;52.022;5.686;2023-03-26T18:32:48;11.50;99.90
48535;DHT22;34323;52.022;5.686;2023-03-26T18:35:20;11.60;99.90
48535;DHT22;34323;52.022;5.686;2023-03-26T18:37:47;11.90;99.90
48535;DHT22;34323;52.022;5.686;2023-03-26T18:40:16;12.00;99.90
48535;DHT22;34323;52.022;5.686;2023-03-26T18:42:55;12.30;99.90
48535;DHT22;34323;52.022;5.686;2023-03-26T18:45:23;12.10;99.90
48535;DHT22;34323;52.022;5.686;2023-03-26T18:48:00;12.10;99.90
48535;DHT22;34323;52.022;5.686;2023-03-26T18:50:33;12.00;99.90
48535;DHT22;34323;52.022;5.686;2023-03-26T18:53:02;11.90;99.90
48535;DHT22;34323;52.022;5.686;2023-03-26T18:55:30;11.70;99.90
48535;DHT22;34323;52.022;5.686;2023-03-26T18:57:58;11.90;99.90
48535;DHT22;34323;52.022;5.686;2023-03-26T19:00:28;12.10;99.90
48535;DHT22;34323;52.022;5.686;2023-03-26T19:03:05;11.90;99.90
48535;DHT22;34323;52.022;5.686;2023-03-26T19:05:32;12.20;99.90
48535;DHT22;34323;52.022;5.686;2023-03-26T19:08:00;12.30;99.90
48535;DHT22;34323;52.022;5.686;2023-03-26T19:10:31;12.30;99.90
48535;DHT22;34323;52.022;5.686;2023-03-26T19:13:00;12.30;99.90
48535;DHT22;34323;52.022;5.686;2023-03-26T19:15:27;11.90;99.90
48535;DHT22;34323;52.022;5.686;2023-03-26T19:18:01;11.60;99.90
48535;DHT22;34323;52.022;5.686;2023-03-26T19:20:46;11.50;99.90
48535;DHT22;34323;52.022;5.686;2023-03-26T19:23:17;11.40;99.90
48535;DHT22;34323;52.022;5.686;2023-03-26T19:25:49;11.40;99.90
48535;DHT22;34323;52.022;5.686;2023-03-26T19:28:26;11.20;99.90
48535;DHT22;34323;52.022;5.686;2023-03-26T19:33:41;11.40;99.90
48535;DHT22;34323;52.022;5.686;2023-03-26T19:38:50;11.30;99.90
48535;DHT22;34323;52.022;5.686;2023-03-26T19:41:28;11.10;99.90
48535;DHT22;34323;52.022;5.686;2023-03-26T19:43:58;11.00;99.90
48535;DHT22;34323;52.022;5.686;2023-03-26T19:46:25;10.90;99.90
48535;DHT22;34323;52.022;5.686;2023-03-26T19:48:53;10.90;99.90
48535;DHT22;34323;52.022;5.686;2023-03-26T19:51:22;10.80;99.90
48535;DHT22;34323;52.022;5.686;2023-03-26T19:53:55;10.80;99.90
48535;DHT22;34323;52.022;5.686;2023-03-26T19:56:22;10.70;99.90
48535;DHT22;34323;52.022;5.686;2023-03-26T19:58:48;10.40;99.90
48535;DHT22;34323;52.022;5.686;2023-03-26T20:01:22;10.50;99.90
48535;DHT22;34323;52.022;5.686;2023-03-26T20:03:50;10.40;99.90
48535;DHT22;34323;52.022;5.686;2023-03-26T20:06:19;10.30;99.90
48535;DHT22;34323;52.022;5.686;2023-03-26T20:08:46;10.00;99.90
48535;DHT22;34323;52.022;5.686;2023-03-26T20:11:20;10.30;99.90
48535;DHT22;34323;52.022;5.686;2023-03-26T20:13:46;10.50;99.90
48535;DHT22;34323;52.022;5.686;2023-03-26T20:16:25;10.70;99.90
48535;DHT22;34323;52.022;5.686;2023-03-26T20:18:51;10.80;99.90
48535;DHT22;34323;52.022;5.686;2023-03-26T20:21:18;11.00;99.90
48535;DHT22;34323;52.022;5.686;2023-03-26T20:23:44;10.90;99.90
48535;DHT22;34323;52.022;5.686;2023-03-26T20:26:14;10.80;99.90
48535;DHT22;34323;52.022;5.686;2023-03-26T20:28:41;10.70;99.90
48535;DHT22;34323;52.022;5.686;2023-03-26T20:31:18;10.80;99.90
48535;DHT22;34323;52.022;5.686;2023-03-26T20:33:47;11.00;99.90
48535;DHT22;34323;52.022;5.686;2023-03-26T20:36:14;10.70;99.90